createdAt,value
2016-03-20T00:00:27.914Z,0
2016-03-20T00:01:15.229Z,0
2016-03-20T00:02:15.232Z,0
2016-03-20T00:03:15.235Z,0
2016-03-20T00:04:15.831Z,0
2016-03-20T00:05:27.834Z,0
2016-03-20T00:06:15.289Z,0
2016-03-20T00:07:15.433Z,0
2016-03-20T00:08:15.935Z,0
2016-03-20T00:09:21.797Z,0
2016-03-20T00:10:15.331Z,0
2016-03-20T00:11:16.803Z,0
2016-03-20T00:12:16.008Z,0
2016-03-20T00:13:15.464Z,0
2016-03-20T00:14:15.404Z,0
2016-03-20T00:15:21.689Z,0
2016-03-20T00:16:15.426Z,0
2016-03-20T00:17:28.210Z,0
2016-03-20T00:18:15.477Z,0
2016-03-20T00:19:34.685Z,0
2016-03-20T00:20:15.702Z,0
2016-03-20T00:21:34.752Z,0
2016-03-20T00:22:15.582Z,0
2016-03-20T00:23:41.226Z,0
2016-03-20T00:24:15.400Z,0
2016-03-20T00:25:15.575Z,0
2016-03-20T00:26:21.859Z,0
2016-03-20T00:27:15.612Z,0
2016-03-20T00:28:15.692Z,0
2016-03-20T00:29:15.632Z,0
2016-03-20T00:30:15.682Z,0
2016-03-20T00:31:21.950Z,0
2016-03-20T00:32:15.703Z,0
2016-03-20T00:33:23.378Z,0
2016-03-20T00:34:21.989Z,0
2016-03-20T00:35:15.727Z,0
2016-03-20T00:36:28.511Z,0
2016-03-20T00:37:17.170Z,0
2016-03-20T00:38:15.797Z,0
2016-03-20T00:39:18.878Z,0
2016-03-20T00:40:17.428Z,0
2016-03-20T00:41:28.619Z,0
2016-03-20T00:42:15.824Z,0
2016-03-20T00:43:35.139Z,0
2016-03-20T00:44:15.891Z,0
2016-03-20T00:46:31.100Z,0
2016-03-20T00:47:31.227Z,0
2016-03-20T00:48:43.841Z,0
2016-03-20T00:49:31.827Z,0
2016-03-20T00:50:56.816Z,0
2016-03-20T00:51:31.270Z,0
2016-03-20T00:53:28.243Z,0
2016-03-20T00:53:40.931Z,0
2016-03-20T00:54:40.856Z,0
2016-03-20T00:55:41.015Z,0
2016-03-20T00:56:42.284Z,0
2016-03-20T00:57:41.098Z,0
2016-03-20T00:58:53.667Z,0
2016-03-20T00:59:40.932Z,0
2016-03-20T01:00:40.935Z,0
2016-03-20T01:01:40.953Z,0
2016-03-20T01:02:40.956Z,0
2016-03-20T01:03:40.990Z,0
2016-03-20T01:04:47.289Z,0
2016-03-20T01:05:41.042Z,0
2016-03-20T01:06:53.782Z,0
2016-03-20T01:07:41.048Z,0
2016-03-20T01:08:41.081Z,0
2016-03-20T01:09:41.099Z,0
2016-03-20T01:10:42.572Z,0
2016-03-20T01:11:53.858Z,0
2016-03-20T01:12:41.139Z,0
2016-03-20T01:13:41.141Z,0
2016-03-20T01:14:41.160Z,0
2016-03-20T01:15:41.194Z,0
2016-03-20T01:16:53.918Z,0
2016-03-20T01:17:41.215Z,0
2016-03-20T01:18:41.249Z,0
2016-03-20T01:19:41.111Z,0
2016-03-20T01:20:41.269Z,0
2016-03-20T01:21:54.196Z,0
2016-03-20T01:22:42.712Z,0
2016-03-20T01:23:41.371Z,0
2016-03-20T01:24:54.080Z,0
2016-03-20T01:25:41.455Z,0
2016-03-20T01:26:41.365Z,0
2016-03-20T01:27:41.351Z,0
2016-03-20T01:28:41.385Z,0
2016-03-20T01:29:41.404Z,0
2016-03-20T01:30:41.422Z,0
2016-03-20T01:31:42.018Z,0
2016-03-20T01:32:47.724Z,0
2016-03-20T01:33:41.477Z,0
2016-03-20T01:34:47.745Z,0
2016-03-20T01:35:41.481Z,0
2016-03-20T01:36:41.578Z,0
2016-03-20T01:37:41.519Z,0
2016-03-20T01:38:47.787Z,0
2016-03-20T01:39:42.180Z,0
2016-03-20T01:40:54.311Z,0
2016-03-20T01:41:47.905Z,0
2016-03-20T01:42:54.316Z,0
2016-03-20T01:43:54.350Z,0
2016-03-20T01:44:41.678Z,0
2016-03-20T01:45:41.665Z,0
2016-03-20T01:46:41.652Z,0
2016-03-20T01:47:41.936Z,0
2016-03-20T01:48:41.704Z,0
2016-03-20T01:49:42.176Z,0
2016-03-20T01:50:48.022Z,0
2016-03-20T01:51:41.775Z,0
2016-03-20T01:52:41.747Z,0
2016-03-20T01:53:42.030Z,0
2016-03-20T01:54:42.408Z,0
2016-03-20T01:55:48.083Z,0
2016-03-20T01:56:41.788Z,0
2016-03-20T01:57:41.837Z,0
2016-03-20T01:58:42.076Z,0
2016-03-20T01:59:41.859Z,0
2016-03-20T02:00:41.909Z,0
2016-03-20T02:01:41.879Z,0
2016-03-20T02:02:42.054Z,0
2016-03-20T02:03:41.917Z,0
2016-03-20T02:04:48.248Z,0
2016-03-20T02:05:42.001Z,0
2016-03-20T02:06:43.425Z,0
2016-03-20T02:07:42.005Z,0
2016-03-20T02:08:42.055Z,0
2016-03-20T02:09:54.733Z,0
2016-03-20T02:10:42.295Z,0
2016-03-20T02:11:42.017Z,0
2016-03-20T02:12:42.082Z,0
2016-03-20T02:13:42.069Z,0
2016-03-20T02:14:48.384Z,0
2016-03-20T02:15:48.402Z,0
2016-03-20T02:16:42.108Z,0
2016-03-20T02:17:54.722Z,0
2016-03-20T02:18:42.769Z,0
2016-03-20T02:19:42.225Z,0
2016-03-20T02:20:42.227Z,0
2016-03-20T02:21:42.230Z,0
2016-03-20T02:22:42.233Z,0
2016-03-20T02:23:42.330Z,0
2016-03-20T02:24:42.271Z,0
2016-03-20T02:25:55.007Z,0
2016-03-20T02:26:42.260Z,0
2016-03-20T02:27:42.310Z,0
2016-03-20T02:28:43.734Z,0
2016-03-20T02:29:42.315Z,0
2016-03-20T02:30:42.412Z,0
2016-03-20T02:31:55.101Z,0
2016-03-20T02:32:42.432Z,0
2016-03-20T02:34:01.640Z,0
2016-03-20T02:34:42.468Z,0
2016-03-20T02:36:55.146Z,0
2016-03-20T02:37:52.040Z,0
2016-03-20T02:38:55.167Z,0
2016-03-20T02:40:04.798Z,0
2016-03-20T02:40:52.173Z,0
2016-03-20T02:41:53.487Z,0
2016-03-20T02:42:52.115Z,0
2016-03-20T02:43:58.370Z,0
2016-03-20T02:44:52.152Z,0
2016-03-20T02:45:52.139Z,0
2016-03-20T02:46:52.172Z,0
2016-03-20T02:47:52.208Z,0
2016-03-20T02:48:53.600Z,0
2016-03-20T02:49:58.496Z,0
2016-03-20T02:51:04.968Z,0
2016-03-20T02:51:52.358Z,0
2016-03-20T02:52:52.236Z,0
2016-03-20T02:53:52.301Z,0
2016-03-20T02:54:53.694Z,0
2016-03-20T02:56:05.091Z,0
2016-03-20T02:56:55.325Z,0
2016-03-20T02:57:52.421Z,0
2016-03-20T02:58:58.614Z,0
2016-03-20T02:59:52.379Z,0
2016-03-20T03:00:52.414Z,0
2016-03-20T03:01:52.370Z,0
2016-03-20T03:02:52.997Z,0
2016-03-20T03:03:52.422Z,0
2016-03-20T03:04:52.487Z,0
2016-03-20T03:05:52.334Z,0
2016-03-20T03:06:52.467Z,0
2016-03-20T03:07:52.502Z,0
2016-03-20T03:08:52.489Z,0
2016-03-20T03:09:52.492Z,0
2016-03-20T03:10:52.603Z,0
2016-03-20T03:12:05.297Z,0
2016-03-20T03:12:52.563Z,0
2016-03-20T03:13:52.549Z,0
2016-03-20T03:14:52.583Z,0
2016-03-20T03:16:05.338Z,0
2016-03-20T03:16:52.619Z,0
2016-03-20T03:17:52.654Z,0
2016-03-20T03:18:52.657Z,0
2016-03-20T03:20:05.490Z,0
2016-03-20T03:20:52.693Z,0
2016-03-20T03:23:02.388Z,0
2016-03-20T03:24:02.485Z,0
2016-03-20T03:25:08.675Z,0
2016-03-20T03:26:02.601Z,0
2016-03-20T03:27:15.149Z,0
2016-03-20T03:28:02.465Z,0
2016-03-20T03:29:02.483Z,0
2016-03-20T03:30:02.564Z,0
2016-03-20T03:31:08.597Z,0
2016-03-20T03:32:02.523Z,0
2016-03-20T03:33:15.259Z,0
2016-03-20T03:34:15.293Z,0
2016-03-20T03:35:02.592Z,0
2016-03-20T03:36:02.595Z,0
2016-03-20T03:37:02.645Z,0
2016-03-20T03:38:15.383Z,0
2016-03-20T03:39:02.713Z,0
2016-03-20T03:40:15.371Z,0
2016-03-20T03:41:15.547Z,0
2016-03-20T03:42:22.549Z,0
2016-03-20T03:43:02.661Z,0
2016-03-20T03:44:28.429Z,0
2016-03-20T03:45:02.729Z,0
2016-03-20T03:46:34.044Z,0
2016-03-20T03:47:09.016Z,0
2016-03-20T03:48:02.784Z,0
2016-03-20T03:49:15.505Z,0
2016-03-20T03:50:02.805Z,0
2016-03-20T03:51:02.792Z,0
2016-03-20T03:52:03.014Z,0
2016-03-20T03:53:09.094Z,0
2016-03-20T03:54:03.566Z,0
2016-03-20T03:55:22.068Z,0
2016-03-20T03:56:16.243Z,0
2016-03-20T03:57:15.668Z,0
2016-03-20T03:58:02.904Z,0
2016-03-20T03:59:21.751Z,0
2016-03-20T04:00:02.972Z,0
2016-03-20T04:01:02.960Z,0
2016-03-20T04:02:03.165Z,0
2016-03-20T04:03:03.080Z,0
2016-03-20T04:04:03.644Z,0
2016-03-20T04:05:03.038Z,0
2016-03-20T04:06:03.025Z,0
2016-03-20T04:07:03.074Z,0
2016-03-20T04:08:09.374Z,0
2016-03-20T04:09:03.345Z,0
2016-03-20T04:10:03.098Z,0
2016-03-20T04:11:03.117Z,0
2016-03-20T04:12:03.104Z,0
2016-03-20T04:13:03.184Z,0
2016-03-20T04:14:03.172Z,0
2016-03-20T04:15:03.190Z,0
2016-03-20T04:16:03.364Z,0
2016-03-20T04:17:03.195Z,0
2016-03-20T04:18:03.401Z,0
2016-03-20T04:19:03.262Z,0
2016-03-20T04:20:03.579Z,0
2016-03-20T04:21:03.268Z,0
2016-03-20T04:22:03.348Z,0
2016-03-20T04:23:03.524Z,0
2016-03-20T04:24:03.354Z,0
2016-03-20T04:25:03.325Z,0
2016-03-20T04:26:09.595Z,0
2016-03-20T04:27:03.571Z,0
2016-03-20T04:28:09.655Z,0
2016-03-20T04:29:03.332Z,0
2016-03-20T04:30:09.650Z,0
2016-03-20T04:31:03.578Z,0
2016-03-20T04:32:03.355Z,0
2016-03-20T04:33:03.416Z,0
2016-03-20T04:34:03.383Z,0
2016-03-20T04:35:03.460Z,0
2016-03-20T04:36:09.786Z,0
2016-03-20T04:37:03.552Z,0
2016-03-20T04:38:22.663Z,0
2016-03-20T04:39:09.742Z,0
2016-03-20T04:40:03.493Z,0
2016-03-20T04:41:03.463Z,0
2016-03-20T04:42:04.074Z,0
2016-03-20T04:43:03.560Z,0
2016-03-20T04:44:04.922Z,0
2016-03-20T04:45:09.798Z,0
2016-03-20T04:46:03.706Z,0
2016-03-20T04:47:04.959Z,0
2016-03-20T04:48:16.431Z,0
2016-03-20T04:49:03.605Z,0
2016-03-20T04:50:22.842Z,0
2016-03-20T04:51:03.611Z,0
2016-03-20T04:52:22.894Z,0
2016-03-20T04:53:03.709Z,0
2016-03-20T04:54:03.712Z,0
2016-03-20T04:55:16.433Z,0
2016-03-20T04:56:03.718Z,0
2016-03-20T04:57:03.705Z,0
2016-03-20T04:58:03.754Z,0
2016-03-20T04:59:16.476Z,0
2016-03-20T05:00:03.728Z,0
2016-03-20T05:01:23.121Z,0
2016-03-20T05:02:03.766Z,0
2016-03-20T05:03:03.846Z,0
2016-03-20T05:04:03.864Z,0
2016-03-20T05:05:04.055Z,0
2016-03-20T05:06:03.901Z,0
2016-03-20T05:07:03.934Z,0
2016-03-20T05:08:10.407Z,0
2016-03-20T05:09:04.096Z,0
2016-03-20T05:10:03.911Z,0
2016-03-20T05:11:03.961Z,0
2016-03-20T05:12:10.417Z,0
2016-03-20T05:13:03.951Z,0
2016-03-20T05:14:23.188Z,0
2016-03-20T05:15:04.596Z,0
2016-03-20T05:17:01.024Z,0
2016-03-20T05:17:13.571Z,0
2016-03-20T05:18:13.636Z,0
2016-03-20T05:19:19.904Z,0
2016-03-20T05:20:26.470Z,0
2016-03-20T05:21:26.254Z,0
2016-03-20T05:22:32.865Z,0
2016-03-20T05:23:26.431Z,0
2016-03-20T05:25:16.327Z,0
2016-03-20T05:25:54.561Z,0
2016-03-20T05:26:29.017Z,0
2016-03-20T05:28:32.928Z,0
2016-03-20T05:29:11.305Z,0
2016-03-20T05:29:45.602Z,0
2016-03-20T05:30:45.528Z,0
2016-03-20T05:31:46.999Z,0
2016-03-20T05:32:51.830Z,5
2016-03-20T05:33:58.349Z,5
2016-03-20T05:35:04.807Z,5
2016-03-20T05:36:05.435Z,5
2016-03-20T05:37:42.609Z,10
2016-03-20T05:38:20.877Z,10
2016-03-20T05:41:00.886Z,20
2016-03-20T05:41:42.417Z,20
2016-03-20T05:42:29.654Z,20
2016-03-20T05:43:42.390Z,20
2016-03-20T05:44:29.675Z,20
2016-03-20T05:46:20.258Z,25
2016-03-20T05:48:08.123Z,25
2016-03-20T05:49:45.688Z,20
2016-03-20T05:51:27.022Z,20
2016-03-20T05:53:29.965Z,25
2016-03-20T05:55:32.782Z,25
2016-03-20T05:56:29.488Z,30
2016-03-20T05:56:48.441Z,30
2016-03-20T05:57:45.397Z,30
2016-03-20T05:58:58.166Z,30
2016-03-20T05:59:54.809Z,30
2016-03-20T06:02:20.473Z,30
2016-03-20T06:03:20.522Z,35
2016-03-20T06:05:29.590Z,35
2016-03-20T06:06:01.469Z,35
2016-03-20T06:08:10.474Z,40
2016-03-20T06:08:42.396Z,40
2016-03-20T06:11:03.997Z,50
2016-03-20T06:11:38.372Z,50
2016-03-20T06:12:38.374Z,55
2016-03-20T06:13:38.346Z,60
2016-03-20T06:14:38.426Z,65
2016-03-20T06:15:51.180Z,65
2016-03-20T06:16:51.167Z,65
2016-03-20T06:18:54.673Z,70
2016-03-20T06:19:38.675Z,70
2016-03-20T06:23:00.936Z,90
2016-03-20T06:23:22.389Z,95
2016-03-20T06:25:25.019Z,105
2016-03-20T06:25:50.347Z,105
2016-03-20T06:26:37.647Z,95
2016-03-20T06:27:43.900Z,95
2016-03-20T06:28:37.667Z,100
2016-03-20T06:29:56.874Z,90
2016-03-20T06:30:43.970Z,90
2016-03-20T06:33:16.010Z,85
2016-03-20T06:34:41.700Z,80
2016-03-20T06:35:20.016Z,75
2016-03-20T06:38:35.163Z,75
2016-03-20T06:39:10.182Z,70
2016-03-20T06:40:03.888Z,70
2016-03-20T06:41:04.093Z,65
2016-03-20T06:42:16.690Z,65
2016-03-20T06:43:05.443Z,70
2016-03-20T06:44:23.211Z,55
2016-03-20T06:45:10.229Z,50
2016-03-20T06:47:06.610Z,60
2016-03-20T06:47:44.923Z,55
2016-03-20T06:48:19.238Z,50
2016-03-20T06:50:34.601Z,70
2016-03-20T06:51:53.762Z,65
2016-03-20T06:52:34.561Z,65
2016-03-20T06:54:37.770Z,60
2016-03-20T06:55:03.084Z,65
2016-03-20T06:55:50.350Z,70
2016-03-20T06:57:41.731Z,75
2016-03-20T06:59:45.736Z,70
2016-03-20T07:00:11.051Z,75
2016-03-20T07:01:24.038Z,85
2016-03-20T07:01:58.366Z,90
2016-03-20T07:04:00.968Z,115
2016-03-20T07:04:13.593Z,115
2016-03-20T07:05:13.658Z,110
2016-03-20T07:06:13.755Z,95
2016-03-20T07:07:13.679Z,125
2016-03-20T07:08:26.338Z,140
2016-03-20T07:09:13.653Z,140
2016-03-20T07:10:32.843Z,140
2016-03-20T07:11:20.050Z,140
2016-03-20T07:12:33.021Z,140
2016-03-20T07:13:13.696Z,145
2016-03-20T07:14:13.745Z,130
2016-03-20T07:15:20.154Z,115
2016-03-20T07:16:13.766Z,105
2016-03-20T07:17:26.487Z,110
2016-03-20T07:18:13.756Z,120
2016-03-20T07:19:32.992Z,130
2016-03-20T07:20:13.824Z,140
2016-03-20T07:21:13.857Z,170
2016-03-20T07:22:15.251Z,195
2016-03-20T07:23:26.737Z,180
2016-03-20T07:24:13.897Z,160
2016-03-20T07:25:26.728Z,125
2016-03-20T07:26:13.948Z,120
2016-03-20T07:27:33.139Z,125
2016-03-20T07:28:13.970Z,120
2016-03-20T07:29:39.675Z,110
2016-03-20T07:30:20.694Z,105
2016-03-20T07:31:13.994Z,110
2016-03-20T07:32:26.839Z,120
2016-03-20T07:33:14.640Z,120
2016-03-20T07:34:22.205Z,115
2016-03-20T07:35:14.066Z,125
2016-03-20T07:36:14.195Z,135
2016-03-20T07:37:14.088Z,145
2016-03-20T07:38:14.140Z,165
2016-03-20T07:39:14.144Z,190
2016-03-20T07:40:14.302Z,195
2016-03-20T07:41:15.632Z,195
2016-03-20T07:42:14.214Z,190
2016-03-20T07:43:14.216Z,215
2016-03-20T07:44:14.235Z,245
2016-03-20T07:45:14.238Z,250
2016-03-20T07:46:14.287Z,245
2016-03-20T07:47:14.477Z,240
2016-03-20T07:48:14.293Z,235
2016-03-20T07:49:14.357Z,210
2016-03-20T07:50:14.313Z,195
2016-03-20T07:51:14.410Z,210
2016-03-20T07:52:14.381Z,235
2016-03-20T07:53:14.385Z,220
2016-03-20T07:54:14.434Z,195
2016-03-20T07:55:14.404Z,195
2016-03-20T07:56:14.455Z,195
2016-03-20T07:57:14.473Z,180
2016-03-20T07:58:14.476Z,175
2016-03-20T07:59:14.509Z,215
2016-03-20T08:00:14.481Z,220
2016-03-20T08:01:14.561Z,230
2016-03-20T08:02:14.596Z,210
2016-03-20T08:03:14.598Z,205
2016-03-20T08:04:14.694Z,190
2016-03-20T08:05:14.589Z,220
2016-03-20T08:06:14.669Z,275
2016-03-20T08:07:14.625Z,295
2016-03-20T08:08:14.689Z,270
2016-03-20T08:09:14.677Z,210
2016-03-20T08:10:14.695Z,190
2016-03-20T08:11:14.713Z,185
2016-03-20T08:12:14.747Z,185
2016-03-20T08:13:14.578Z,205
2016-03-20T08:14:14.769Z,235
2016-03-20T08:15:14.802Z,265
2016-03-20T08:16:14.805Z,285
2016-03-20T08:17:14.916Z,215
2016-03-20T08:18:14.826Z,195
2016-03-20T08:19:14.969Z,230
2016-03-20T08:20:14.863Z,260
2016-03-20T08:21:14.912Z,300
2016-03-20T08:22:14.899Z,360
2016-03-20T08:23:14.980Z,370
2016-03-20T08:24:14.935Z,330
2016-03-20T08:25:15.001Z,320
2016-03-20T08:26:14.957Z,310
2016-03-20T08:27:14.959Z,270
2016-03-20T08:28:15.135Z,265
2016-03-20T08:29:15.012Z,240
2016-03-20T08:30:15.077Z,230
2016-03-20T08:31:15.173Z,225
2016-03-20T08:32:14.973Z,260
2016-03-20T08:33:15.117Z,300
2016-03-20T08:34:15.244Z,305
2016-03-20T08:35:15.169Z,240
2016-03-20T08:36:15.156Z,260
2016-03-20T08:37:15.159Z,295
2016-03-20T08:38:15.192Z,250
2016-03-20T08:39:15.195Z,250
2016-03-20T08:40:15.261Z,300
2016-03-20T08:41:15.450Z,310
2016-03-20T08:42:15.250Z,280
2016-03-20T08:43:15.565Z,235
2016-03-20T08:44:15.302Z,270
2016-03-20T08:45:15.461Z,300
2016-03-20T08:46:15.308Z,285
2016-03-20T08:47:15.576Z,300
2016-03-20T08:48:15.391Z,330
2016-03-20T08:49:15.410Z,305
2016-03-20T08:50:15.412Z,255
2016-03-20T08:51:15.446Z,305
2016-03-20T08:52:15.449Z,295
2016-03-20T08:53:15.451Z,335
2016-03-20T08:54:16.079Z,285
2016-03-20T08:55:16.113Z,240
2016-03-20T08:56:15.772Z,235
2016-03-20T08:57:28.290Z,195
2016-03-20T08:58:15.590Z,185
2016-03-20T08:59:34.765Z,170
2016-03-20T09:00:15.626Z,165
2016-03-20T09:03:47.416Z,280
2016-03-20T09:04:34.606Z,260
2016-03-20T09:05:53.858Z,265
2016-03-20T09:06:34.517Z,270
2016-03-20T09:07:34.786Z,210
2016-03-20T09:08:34.742Z,185
2016-03-20T09:09:34.728Z,230
2016-03-20T09:10:34.669Z,355
2016-03-20T09:11:34.781Z,320
2016-03-20T09:12:34.847Z,340
2016-03-20T09:13:34.802Z,350
2016-03-20T09:14:34.774Z,305
2016-03-20T09:15:34.808Z,315
2016-03-20T09:16:34.919Z,300
2016-03-20T09:17:34.969Z,220
2016-03-20T09:18:34.878Z,225
2016-03-20T09:19:34.943Z,205
2016-03-20T09:20:47.680Z,170
2016-03-20T09:21:34.964Z,160
2016-03-20T09:22:34.951Z,230
2016-03-20T09:23:35.188Z,395
2016-03-20T09:24:41.238Z,300
2016-03-20T09:25:35.084Z,245
2016-03-20T09:26:35.071Z,220
2016-03-20T09:27:35.121Z,220
2016-03-20T09:28:35.107Z,145
2016-03-20T09:29:35.158Z,170
2016-03-20T09:30:35.098Z,335
2016-03-20T09:31:35.147Z,320
2016-03-20T09:32:35.151Z,200
2016-03-20T09:33:35.184Z,175
2016-03-20T09:34:35.327Z,215
2016-03-20T09:35:35.205Z,330
2016-03-20T09:36:35.379Z,470
2016-03-20T09:37:48.007Z,300
2016-03-20T09:38:36.104Z,360
2016-03-20T09:39:35.309Z,300
2016-03-20T09:40:35.375Z,265
2016-03-20T09:41:35.315Z,245
2016-03-20T09:42:48.067Z,300
2016-03-20T09:43:35.851Z,320
2016-03-20T09:44:54.589Z,420
2016-03-20T09:45:48.091Z,485
2016-03-20T09:46:54.625Z,475
2016-03-20T09:47:35.441Z,235
2016-03-20T09:48:36.193Z,185
2016-03-20T09:49:35.618Z,165
2016-03-20T09:50:35.511Z,140
2016-03-20T09:51:35.514Z,170
2016-03-20T09:52:36.110Z,205
2016-03-20T09:53:35.629Z,220
2016-03-20T09:54:35.585Z,235
2016-03-20T09:55:35.587Z,245
2016-03-20T09:56:35.605Z,265
2016-03-20T09:57:35.624Z,285
2016-03-20T09:58:35.626Z,195
2016-03-20T09:59:35.676Z,205
2016-03-20T10:00:48.428Z,230
2016-03-20T10:01:35.712Z,205
2016-03-20T10:02:54.934Z,165
2016-03-20T10:03:35.702Z,165
2016-03-20T10:05:07.067Z,340
2016-03-20T10:05:35.739Z,315
2016-03-20T10:06:35.789Z,240
2016-03-20T10:07:48.556Z,200
2016-03-20T10:08:36.044Z,170
2016-03-20T10:09:48.577Z,190
2016-03-20T10:10:42.128Z,195
2016-03-20T10:11:35.895Z,250
2016-03-20T10:12:35.898Z,300
2016-03-20T10:13:35.948Z,285
2016-03-20T10:14:48.700Z,260
2016-03-20T10:15:36.031Z,315
2016-03-20T10:16:55.205Z,230
2016-03-20T10:17:48.786Z,200
2016-03-20T10:18:35.992Z,195
2016-03-20T10:19:55.229Z,215
2016-03-20T10:20:36.045Z,185
2016-03-20T10:21:55.282Z,175
2016-03-20T10:22:42.363Z,215
2016-03-20T10:23:36.116Z,170
2016-03-20T10:24:55.383Z,195
2016-03-20T10:25:36.136Z,190
2016-03-20T10:27:01.874Z,230
2016-03-20T10:27:49.001Z,310
2016-03-20T10:29:07.647Z,235
2016-03-20T10:29:55.444Z,255
2016-03-20T10:30:36.244Z,275
2016-03-20T10:32:02.059Z,370
2016-03-20T10:32:42.562Z,420
2016-03-20T10:34:33.270Z,345
2016-03-20T10:34:45.910Z,325
2016-03-20T10:35:45.913Z,485
2016-03-20T10:36:45.994Z,445
2016-03-20T10:37:45.935Z,360
2016-03-20T10:38:58.734Z,305
2016-03-20T10:39:45.970Z,310
2016-03-20T10:40:45.973Z,360
2016-03-20T10:41:46.023Z,430
2016-03-20T10:42:52.275Z,375
2016-03-20T10:43:46.059Z,330
2016-03-20T10:44:46.078Z,305
2016-03-20T10:45:46.253Z,400
2016-03-20T10:46:46.146Z,375
2016-03-20T10:47:58.914Z,500
2016-03-20T10:48:46.183Z,450
2016-03-20T10:49:46.185Z,435
2016-03-20T10:50:46.188Z,365
2016-03-20T10:51:46.175Z,300
2016-03-20T10:52:52.537Z,480
2016-03-20T10:53:46.478Z,485
2016-03-20T10:54:46.246Z,530
2016-03-20T10:55:46.310Z,390
2016-03-20T10:56:46.360Z,255
2016-03-20T10:57:46.394Z,180
2016-03-20T10:58:46.365Z,190
2016-03-20T10:59:46.384Z,195
2016-03-20T11:00:46.449Z,175
2016-03-20T11:01:46.405Z,125
2016-03-20T11:02:46.423Z,165
2016-03-20T11:03:46.457Z,180
2016-03-20T11:04:46.460Z,205
2016-03-20T11:05:46.462Z,145
2016-03-20T11:06:46.528Z,145
2016-03-20T11:07:46.545Z,160
2016-03-20T11:08:46.580Z,190
2016-03-20T11:09:46.677Z,245
2016-03-20T11:10:46.601Z,270
2016-03-20T11:11:46.681Z,340
2016-03-20T11:12:46.669Z,415
2016-03-20T11:13:46.750Z,360
2016-03-20T11:14:46.674Z,360
2016-03-20T11:15:59.474Z,245
2016-03-20T11:16:46.695Z,210
2016-03-20T11:17:46.776Z,240
2016-03-20T11:18:46.732Z,300
2016-03-20T11:19:46.781Z,305
2016-03-20T11:20:47.425Z,340
2016-03-20T11:21:46.802Z,420
2016-03-20T11:22:46.961Z,450
2016-03-20T11:23:46.855Z,385
2016-03-20T11:24:46.935Z,360
2016-03-20T11:25:46.877Z,320
2016-03-20T11:26:46.910Z,230
2016-03-20T11:27:46.913Z,210
2016-03-20T11:28:46.946Z,255
2016-03-20T11:29:46.980Z,250
2016-03-20T11:30:46.999Z,195
2016-03-20T11:31:47.001Z,175
2016-03-20T11:32:47.051Z,135
2016-03-20T11:33:47.194Z,150
2016-03-20T11:34:47.072Z,185
2016-03-20T11:35:47.106Z,240
2016-03-20T11:36:47.092Z,265
2016-03-20T11:37:47.143Z,280
2016-03-20T11:38:53.395Z,270
2016-03-20T11:39:47.303Z,290
2016-03-20T11:41:05.762Z,345
2016-03-20T11:41:50.356Z,340
2016-03-20T11:42:47.281Z,390
2016-03-20T11:43:47.237Z,435
2016-03-20T11:44:47.271Z,400
2016-03-20T11:45:47.289Z,445
2016-03-20T11:46:47.338Z,410
2016-03-20T11:47:47.341Z,395
2016-03-20T11:49:29.503Z,380
2016-03-20T11:49:47.441Z,390
2016-03-20T11:50:49.646Z,410
2016-03-20T11:51:47.414Z,430
2016-03-20T11:52:47.449Z,470
2016-03-20T11:53:47.451Z,425
2016-03-20T11:54:47.516Z,430
2016-03-20T11:55:47.471Z,470
2016-03-20T11:56:47.521Z,495
2016-03-20T11:57:47.743Z,470
2016-03-20T11:58:47.558Z,440
2016-03-20T11:59:47.608Z,400
2016-03-20T12:00:47.580Z,390
2016-03-20T12:01:47.629Z,360
2016-03-20T12:02:47.694Z,325
2016-03-20T12:03:47.697Z,290
2016-03-20T12:04:47.731Z,285
2016-03-20T12:05:47.779Z,310
2016-03-20T12:06:47.736Z,315
2016-03-20T12:07:54.020Z,300
2016-03-20T12:08:47.772Z,280
2016-03-20T12:09:47.807Z,260
2016-03-20T12:10:47.809Z,290
2016-03-20T12:11:47.859Z,315
2016-03-20T12:12:48.128Z,365
2016-03-20T12:13:47.912Z,405
2016-03-20T12:14:47.976Z,440
2016-03-20T12:15:47.931Z,440
2016-03-20T12:16:48.059Z,420
2016-03-20T12:17:47.984Z,365
2016-03-20T12:18:47.971Z,280
2016-03-20T12:19:48.021Z,210
2016-03-20T12:20:48.039Z,165
2016-03-20T12:21:48.042Z,130
2016-03-20T12:22:54.341Z,120
2016-03-20T12:23:48.063Z,140
2016-03-20T12:25:07.472Z,155
2016-03-20T12:25:54.396Z,180
2016-03-20T12:26:48.134Z,225
2016-03-20T12:28:00.980Z,250
2016-03-20T12:28:48.170Z,265
2016-03-20T12:29:48.189Z,270
2016-03-20T12:30:48.222Z,260
2016-03-20T12:31:48.240Z,260
2016-03-20T12:32:48.291Z,245
2016-03-20T12:33:48.309Z,260
2016-03-20T12:34:48.296Z,285
2016-03-20T12:35:48.361Z,325
2016-03-20T12:37:01.067Z,360
2016-03-20T12:37:48.366Z,340
2016-03-20T12:38:48.369Z,260
2016-03-20T12:39:48.606Z,225
2016-03-20T12:40:48.453Z,260
2016-03-20T12:41:49.065Z,305
2016-03-20T12:42:48.459Z,330
2016-03-20T12:43:54.757Z,365
2016-03-20T12:44:48.697Z,365
2016-03-20T12:45:48.872Z,305
2016-03-20T12:46:48.765Z,255
2016-03-20T12:47:48.909Z,220
2016-03-20T12:49:01.443Z,225
2016-03-20T12:50:01.586Z,245
2016-03-20T12:51:01.605Z,270
2016-03-20T12:51:49.154Z,290
2016-03-20T12:52:49.391Z,330
2016-03-20T12:53:49.113Z,335
2016-03-20T12:54:48.756Z,285
2016-03-20T12:55:49.008Z,260
2016-03-20T12:56:49.324Z,250
2016-03-20T12:57:48.841Z,280
2016-03-20T12:58:48.891Z,295
2016-03-20T12:59:48.816Z,310
2016-03-20T13:00:49.021Z,325
2016-03-20T13:01:48.852Z,365
2016-03-20T13:02:49.027Z,400
2016-03-20T13:03:48.905Z,395
2016-03-20T13:04:49.001Z,365
2016-03-20T13:05:48.926Z,330
2016-03-20T13:06:48.819Z,270
2016-03-20T13:07:49.587Z,255
2016-03-20T13:08:49.044Z,230
2016-03-20T13:09:49.062Z,205
2016-03-20T13:11:01.768Z,220
2016-03-20T13:11:49.036Z,220
2016-03-20T13:13:09.023Z,235
2016-03-20T13:13:57.651Z,240
2016-03-20T13:15:41.468Z,290
2016-03-20T13:15:58.109Z,305
2016-03-20T13:16:59.440Z,275
2016-03-20T13:17:58.943Z,275
2016-03-20T13:18:55.789Z,240
2016-03-20T13:19:54.401Z,250
2016-03-20T13:20:55.342Z,235
2016-03-20T13:21:55.016Z,210
2016-03-20T13:22:54.956Z,195
2016-03-20T13:23:54.944Z,205
2016-03-20T13:24:54.931Z,185
2016-03-20T13:25:54.527Z,205
2016-03-20T13:26:54.842Z,200
2016-03-20T13:27:54.485Z,200
2016-03-20T13:28:55.019Z,200
2016-03-20T13:29:55.194Z,200
2016-03-20T13:30:55.213Z,205
2016-03-20T13:31:54.670Z,215
2016-03-20T13:32:54.859Z,240
2016-03-20T13:34:00.895Z,240
2016-03-20T13:34:54.805Z,225
2016-03-20T13:35:54.917Z,215
2016-03-20T13:36:56.546Z,205
2016-03-20T13:37:54.941Z,200
2016-03-20T13:38:54.703Z,200
2016-03-20T13:40:07.529Z,205
2016-03-20T13:40:56.167Z,200
2016-03-20T13:42:14.195Z,190
2016-03-20T13:42:54.974Z,190
2016-03-20T13:44:57.538Z,210
2016-03-20T13:45:35.789Z,210
2016-03-20T13:46:10.227Z,220
2016-03-20T13:48:07.665Z,205
2016-03-20T13:48:20.933Z,225
2016-03-20T13:50:27.951Z,230
2016-03-20T13:51:27.297Z,200
2016-03-20T13:52:20.627Z,200
2016-03-20T13:53:20.396Z,195
2016-03-20T13:54:26.727Z,205
2016-03-20T13:55:20.743Z,215
2016-03-20T13:56:33.387Z,210
2016-03-20T13:57:27.014Z,195
2016-03-20T13:58:39.642Z,195
2016-03-20T13:59:39.941Z,200
2016-03-20T14:01:17.757Z,210
2016-03-20T14:01:49.603Z,210
2016-03-20T14:04:30.753Z,205
2016-03-20T14:04:50.003Z,205
2016-03-20T14:05:43.693Z,200
2016-03-20T14:06:56.383Z,195
2016-03-20T14:07:43.854Z,190
2016-03-20T14:08:43.732Z,190
2016-03-20T14:09:43.500Z,185
2016-03-20T14:10:44.377Z,190
2016-03-20T14:11:50.068Z,215
2016-03-20T14:12:51.242Z,230
2016-03-20T14:13:56.370Z,210
2016-03-20T14:15:03.123Z,215
2016-03-20T14:16:03.297Z,220
2016-03-20T14:18:12.631Z,235
2016-03-20T14:18:25.634Z,230
2016-03-20T14:20:22.215Z,240
2016-03-20T14:20:35.154Z,235
2016-03-20T14:22:35.847Z,195
2016-03-20T14:23:35.319Z,200
2016-03-20T14:24:36.322Z,205
2016-03-20T14:25:36.386Z,195
2016-03-20T14:26:47.999Z,185
2016-03-20T14:27:54.485Z,180
2016-03-20T14:28:47.754Z,180
2016-03-20T14:31:35.496Z,175
2016-03-20T14:32:35.453Z,175
2016-03-20T14:33:35.877Z,180
2016-03-20T14:34:41.739Z,180
2016-03-20T14:35:35.508Z,180
2016-03-20T14:36:48.244Z,165
2016-03-20T14:37:35.544Z,185
2016-03-20T14:38:54.734Z,185
2016-03-20T14:39:41.862Z,195
2016-03-20T14:40:35.849Z,200
2016-03-20T14:41:48.679Z,210
2016-03-20T14:42:35.949Z,205
2016-03-20T14:43:48.404Z,210
2016-03-20T14:44:42.454Z,195